createdAt,value
2023-01-04T00:01:23.760Z,99.88
2023-01-04T00:03:51.355Z,77.68
2023-01-04T00:06:20.269Z,105.30
2023-01-04T00:08:47.971Z,120.47
2023-01-04T00:11:18.163Z,62.55
2023-01-04T00:13:46.757Z,60.00
2023-01-04T00:16:18.239Z,48.15
2023-01-04T00:18:46.418Z,41.95
2023-01-04T00:21:19.344Z,45.47
2023-01-04T00:23:48.910Z,63.50
2023-01-04T00:26:22.298Z,57.97
2023-01-04T00:28:54.832Z,40.67
2023-01-04T00:31:24.129Z,83.80
2023-01-04T00:33:56.303Z,86.82
2023-01-04T00:39:08.010Z,41.92
2023-01-04T00:41:57.602Z,44.60
2023-01-04T00:44:26.081Z,35.10
2023-01-04T00:46:53.904Z,35.17
2023-01-04T00:49:21.247Z,35.90
2023-01-04T00:51:48.791Z,55.47
2023-01-04T00:54:16.873Z,69.93
2023-01-04T00:56:44.992Z,47.33
2023-01-04T00:59:14.274Z,42.70
2023-01-04T01:01:43.094Z,59.67
2023-01-04T01:04:13.859Z,58.80
2023-01-04T01:06:41.951Z,60.08
2023-01-04T01:09:09.373Z,50.38
2023-01-04T01:11:38.442Z,56.22
2023-01-04T01:14:07.432Z,55.45
2023-01-04T01:19:22.482Z,41.75
2023-01-04T01:21:50.016Z,37.50
2023-01-04T01:24:19.216Z,52.55
2023-01-04T01:26:46.757Z,54.58
2023-01-04T01:29:14.096Z,56.35
2023-01-04T01:31:42.332Z,47.30
2023-01-04T01:34:09.983Z,41.15
2023-01-04T01:36:37.792Z,52.60
2023-01-04T01:39:06.196Z,47.45
2023-01-04T01:41:34.898Z,42.72
2023-01-04T01:44:44.079Z,45.60
2023-01-04T01:47:19.110Z,58.35
2023-01-04T01:49:50.332Z,53.17
2023-01-04T01:52:22.512Z,46.85
2023-01-04T01:54:57.537Z,42.97
2023-01-04T01:57:28.926Z,40.03
2023-01-04T01:59:59.068Z,46.05
2023-01-04T02:02:26.885Z,39.78
2023-01-04T02:04:55.599Z,38.15
2023-01-04T02:07:26.467Z,39.15
2023-01-04T02:09:54.899Z,39.20
2023-01-04T02:12:22.604Z,37.55
2023-01-04T02:14:51.003Z,35.65
2023-01-04T02:17:42.468Z,39.20
2023-01-04T02:20:28.444Z,39.42
2023-01-04T02:23:13.695Z,41.20
2023-01-04T02:26:14.078Z,39.90
2023-01-04T02:29:18.472Z,38.95
2023-01-04T02:31:57.354Z,36.67
2023-01-04T02:34:42.941Z,39.00
2023-01-04T02:37:35.591Z,37.67
2023-01-04T02:40:14.682Z,39.00
2023-01-04T02:43:18.559Z,38.25
2023-01-04T02:46:01.725Z,40.65
2023-01-04T02:49:00.188Z,39.50
2023-01-04T02:51:38.540Z,37.13
2023-01-04T02:54:13.586Z,37.28
2023-01-04T02:57:04.865Z,38.00
2023-01-04T03:00:03.549Z,36.28
2023-01-04T03:03:04.478Z,36.53
2023-01-04T03:06:05.465Z,37.70
2023-01-04T03:08:41.567Z,33.83
2023-01-04T03:11:32.454Z,35.38
2023-01-04T03:14:31.849Z,35.75
2023-01-04T03:17:04.688Z,38.63
2023-01-04T03:20:11.795Z,35.13
2023-01-04T03:23:05.679Z,36.17
2023-01-04T03:26:02.180Z,35.88
2023-01-04T03:28:53.990Z,36.85
2023-01-04T03:31:49.619Z,36.08
2023-01-04T03:34:36.224Z,36.03
2023-01-04T03:37:20.525Z,36.17
2023-01-04T03:40:16.287Z,35.03
2023-01-04T03:43:07.732Z,35.47
2023-01-04T03:46:03.888Z,36.97
2023-01-04T03:48:51.091Z,37.85
2023-01-04T03:51:23.010Z,36.75
2023-01-04T03:53:50.479Z,38.50
2023-01-04T03:56:19.936Z,38.95
2023-01-04T03:58:47.537Z,33.97
2023-01-04T04:01:15.127Z,35.67
2023-01-04T04:04:01.163Z,38.47
2023-01-04T04:06:46.987Z,39.13
2023-01-04T04:09:14.436Z,41.10
2023-01-04T04:11:41.587Z,42.28
2023-01-04T04:14:08.994Z,43.42
2023-01-04T04:16:36.283Z,44.00
2023-01-04T04:19:08.643Z,41.75
2023-01-04T04:24:04.955Z,41.17
2023-01-04T04:26:32.388Z,43.20
2023-01-04T04:28:59.926Z,47.80
2023-01-04T04:31:27.260Z,40.42
2023-01-04T04:33:54.687Z,46.38
2023-01-04T04:36:21.904Z,43.47
2023-01-04T04:38:49.340Z,42.65
2023-01-04T04:41:35.068Z,41.15
2023-01-04T04:44:02.456Z,43.03
2023-01-04T04:46:29.836Z,43.28
2023-01-04T04:48:57.754Z,41.20
2023-01-04T04:51:24.948Z,41.40
2023-01-04T04:53:52.317Z,42.92
2023-01-04T04:56:19.668Z,43.15
2023-01-04T04:58:47.603Z,42.55
2023-01-04T05:01:15.350Z,44.90
2023-01-04T05:03:42.958Z,46.60
2023-01-04T05:06:10.364Z,46.30
2023-01-04T05:08:37.841Z,46.42
2023-01-04T05:11:09.775Z,46.38
2023-01-04T05:13:37.361Z,47.88
2023-01-04T05:16:07.635Z,47.40
2023-01-04T05:18:36.281Z,47.63
2023-01-04T05:21:03.532Z,46.63
2023-01-04T05:23:31.047Z,42.47
2023-01-04T05:26:01.052Z,47.28
2023-01-04T05:28:29.091Z,44.15
2023-01-04T05:30:57.216Z,43.92
2023-01-04T05:33:29.787Z,42.90
2023-01-04T05:35:59.031Z,42.53
2023-01-04T05:38:26.681Z,42.28
2023-01-04T05:40:54.831Z,43.58
2023-01-04T05:43:23.973Z,41.13
2023-01-04T05:45:53.517Z,42.42
2023-01-04T05:48:22.177Z,40.55
2023-01-04T05:50:49.688Z,42.53
2023-01-04T05:53:18.305Z,42.45
2023-01-04T05:55:48.187Z,43.33
2023-01-04T05:58:16.155Z,41.25
2023-01-04T06:00:43.427Z,42.25
2023-01-04T06:03:11.001Z,38.95
2023-01-04T06:05:38.357Z,41.67
2023-01-04T06:08:06.211Z,40.20
2023-01-04T06:10:33.567Z,38.33
2023-01-04T06:13:01.043Z,37.90
2023-01-04T06:15:28.224Z,40.33
2023-01-04T06:17:55.693Z,39.85
2023-01-04T06:20:23.165Z,42.58
2023-01-04T06:22:50.580Z,41.83
2023-01-04T06:25:18.183Z,39.92
2023-01-04T06:27:46.097Z,39.75
2023-01-04T06:30:13.255Z,40.78
2023-01-04T06:32:40.693Z,40.90
2023-01-04T06:35:08.302Z,41.97
2023-01-04T06:37:36.051Z,43.90
2023-01-04T06:40:03.722Z,41.72
2023-01-04T06:42:46.519Z,44.50
2023-01-04T06:45:15.046Z,42.50
2023-01-04T06:47:43.147Z,41.92
2023-01-04T06:50:11.606Z,41.20
2023-01-04T06:52:39.224Z,40.92
2023-01-04T06:55:09.505Z,39.88
2023-01-04T06:57:37.725Z,41.35
2023-01-04T07:00:06.992Z,46.70
2023-01-04T07:02:34.680Z,39.58
2023-01-04T07:05:02.937Z,40.60
2023-01-04T07:07:30.521Z,40.15
2023-01-04T07:09:58.308Z,39.17
2023-01-04T07:12:27.660Z,39.08
2023-01-04T07:14:54.951Z,39.97
2023-01-04T07:17:26.526Z,41.80
2023-01-04T07:19:57.055Z,48.45
2023-01-04T07:22:24.608Z,54.22
2023-01-04T07:24:51.817Z,49.05
2023-01-04T07:27:19.324Z,42.75
2023-01-04T07:29:46.892Z,40.42
2023-01-04T07:32:14.478Z,42.83
2023-01-04T07:34:43.056Z,41.70
2023-01-04T07:37:10.589Z,41.53
2023-01-04T07:39:37.930Z,45.55
2023-01-04T07:42:05.513Z,41.58
2023-01-04T07:44:33.537Z,41.30
2023-01-04T07:47:01.094Z,42.42
2023-01-04T07:49:28.588Z,41.20
2023-01-04T07:51:56.141Z,41.92
2023-01-04T07:54:25.898Z,40.88
2023-01-04T07:56:53.429Z,44.05
2023-01-04T07:59:21.865Z,42.33
2023-01-04T08:01:51.009Z,44.95
2023-01-04T08:04:22.938Z,44.05
2023-01-04T08:06:50.574Z,46.78
2023-01-04T08:09:18.056Z,43.60
2023-01-04T08:11:46.100Z,43.42
2023-01-04T08:14:13.598Z,46.08
2023-01-04T08:16:42.535Z,45.60
2023-01-04T08:19:18.626Z,44.15
2023-01-04T08:21:46.901Z,40.88
2023-01-04T08:24:19.763Z,41.58
2023-01-04T08:26:47.799Z,42.47
2023-01-04T08:29:15.283Z,42.20
2023-01-04T08:31:42.828Z,44.08
2023-01-04T08:34:10.569Z,41.10
2023-01-04T08:36:49.864Z,43.70
2023-01-04T08:39:17.363Z,39.90
2023-01-04T08:42:04.164Z,36.30
2023-01-04T08:44:35.515Z,37.15
2023-01-04T08:47:03.229Z,37.28
2023-01-04T08:49:30.565Z,35.05
2023-01-04T08:51:58.100Z,33.65
2023-01-04T08:54:25.403Z,32.28
2023-01-04T08:56:52.831Z,31.85
2023-01-04T08:59:20.108Z,29.92
2023-01-04T09:01:47.849Z,32.45
2023-01-04T09:04:15.200Z,27.40
2023-01-04T09:06:42.766Z,29.02
2023-01-04T09:09:10.220Z,33.30
2023-01-04T09:11:38.752Z,26.48
2023-01-04T09:14:09.445Z,25.67
2023-01-04T09:16:38.196Z,33.33
2023-01-04T09:19:06.288Z,28.60
2023-01-04T09:21:34.130Z,30.95
2023-01-04T09:24:01.379Z,26.77
2023-01-04T09:26:28.816Z,31.35
2023-01-04T09:28:56.879Z,23.45
2023-01-04T09:31:27.042Z,22.80
2023-01-04T09:36:44.194Z,22.25
2023-01-04T09:39:20.822Z,20.02
2023-01-04T09:41:59.816Z,22.20
2023-01-04T09:47:57.855Z,19.98
2023-01-04T09:50:29.217Z,17.75
2023-01-04T09:53:06.605Z,25.02
2023-01-04T09:55:40.820Z,21.50
2023-01-04T09:58:34.242Z,19.23
2023-01-04T10:01:36.268Z,17.90
2023-01-04T10:04:12.913Z,18.15
2023-01-04T10:06:40.052Z,18.65
2023-01-04T10:09:12.973Z,16.90
2023-01-04T10:11:45.800Z,16.92
2023-01-04T10:14:21.897Z,16.33
2023-01-04T10:17:13.336Z,18.67
2023-01-04T10:23:19.182Z,18.42
2023-01-04T10:26:18.223Z,16.60
2023-01-04T10:29:02.174Z,16.90
2023-01-04T10:31:43.865Z,15.20
2023-01-04T10:34:23.235Z,17.00
2023-01-04T10:36:55.959Z,19.02
2023-01-04T10:39:32.285Z,17.50
2023-01-04T10:42:06.011Z,17.40
2023-01-04T10:44:59.094Z,17.98
2023-01-04T10:47:43.366Z,15.73
2023-01-04T10:50:26.575Z,23.92
2023-01-04T10:53:15.100Z,23.67
2023-01-04T10:56:23.717Z,26.75
2023-01-04T10:59:13.991Z,39.03
2023-01-04T11:01:44.659Z,23.02
2023-01-04T11:04:32.599Z,17.23
2023-01-04T11:06:59.928Z,15.90
2023-01-04T11:09:55.077Z,13.38
2023-01-04T11:12:23.526Z,13.07
2023-01-04T11:14:51.755Z,12.18
2023-01-04T11:17:21.439Z,20.55
2023-01-04T11:19:49.267Z,21.63
2023-01-04T11:22:46.354Z,13.88
2023-01-04T11:25:35.800Z,19.55
2023-01-04T11:28:14.434Z,12.57
2023-01-04T11:31:15.618Z,14.00
2023-01-04T11:34:03.124Z,26.35
2023-01-04T11:36:43.210Z,21.67
2023-01-04T11:39:19.387Z,34.25
2023-01-04T11:42:02.608Z,13.95
2023-01-04T11:44:32.708Z,16.25
2023-01-04T11:47:10.148Z,15.63
2023-01-04T11:49:37.955Z,13.95
2023-01-04T11:52:08.442Z,13.77
2023-01-04T11:54:35.627Z,18.88
2023-01-04T11:57:17.883Z,18.15
2023-01-04T11:59:45.211Z,14.43
2023-01-04T12:02:58.459Z,16.92
2023-01-04T12:05:29.031Z,18.40
2023-01-04T12:07:58.912Z,19.05
2023-01-04T12:10:28.174Z,17.90
2023-01-04T12:12:59.470Z,17.73
2023-01-04T12:15:38.596Z,78.72
2023-01-04T12:18:19.268Z,17.48
2023-01-04T12:20:46.472Z,34.42
2023-01-04T12:23:14.373Z,20.65
2023-01-04T12:25:46.636Z,51.20
2023-01-04T12:28:35.706Z,19.00
2023-01-04T12:31:21.802Z,13.95
2023-01-04T12:33:52.868Z,12.95
2023-01-04T12:36:22.179Z,14.20
2023-01-04T12:38:52.805Z,14.45
2023-01-04T12:41:21.360Z,13.57
2023-01-04T12:43:50.067Z,21.55
2023-01-04T12:46:50.715Z,15.98
2023-01-04T12:49:30.032Z,17.95
2023-01-04T12:52:32.486Z,19.15
2023-01-04T12:55:27.550Z,20.23
2023-01-04T12:57:54.947Z,17.90
2023-01-04T13:00:22.573Z,12.30
2023-01-04T13:03:25.912Z,12.05
2023-01-04T13:06:07.042Z,13.43
2023-01-04T13:08:42.395Z,11.88
2023-01-04T13:11:42.820Z,13.50
2023-01-04T13:14:29.417Z,12.75
2023-01-04T13:17:09.236Z,12.68
2023-01-04T13:19:38.873Z,13.15
2023-01-04T13:22:37.548Z,13.50
2023-01-04T13:25:12.608Z,38.30
2023-01-04T13:27:58.604Z,19.42
2023-01-04T13:30:37.610Z,15.13
2023-01-04T13:33:29.449Z,22.35
2023-01-04T13:36:04.435Z,14.82
2023-01-04T13:38:34.443Z,20.42
2023-01-04T13:41:03.363Z,15.90
2023-01-04T13:43:54.245Z,23.42
2023-01-04T13:46:26.920Z,15.30
2023-01-04T13:49:00.967Z,12.55
2023-01-04T13:51:37.186Z,14.55
2023-01-04T13:54:17.531Z,17.77
2023-01-04T13:56:48.366Z,13.60
2023-01-04T13:59:21.187Z,12.77
2023-01-04T14:01:49.329Z,14.57
2023-01-04T14:04:27.329Z,19.65
2023-01-04T14:06:57.875Z,16.30
2023-01-04T14:09:35.389Z,12.02
2023-01-04T14:12:13.613Z,31.08
2023-01-04T14:14:44.031Z,21.92
2023-01-04T14:17:17.837Z,38.13
2023-01-04T14:19:50.869Z,14.07
2023-01-04T14:22:32.703Z,20.77
2023-01-04T14:25:10.351Z,29.48
2023-01-04T14:27:40.671Z,12.90
2023-01-04T14:30:28.418Z,16.48
2023-01-04T14:33:17.196Z,25.05
2023-01-04T14:35:48.832Z,31.23
2023-01-04T14:38:19.384Z,18.45
2023-01-04T14:40:47.158Z,13.48
2023-01-04T14:43:53.531Z,14.30
2023-01-04T14:46:23.875Z,21.08
2023-01-04T14:48:51.523Z,24.25
2023-01-04T14:51:22.635Z,20.10
2023-01-04T14:53:51.111Z,15.60
2023-01-04T14:56:19.413Z,15.98
2023-01-04T14:58:46.550Z,14.38
2023-01-04T15:01:14.145Z,20.85
2023-01-04T15:03:41.594Z,19.58
2023-01-04T15:06:10.459Z,11.52
2023-01-04T15:08:37.651Z,22.80
2023-01-04T15:11:05.127Z,16.58
2023-01-04T15:13:39.110Z,12.23
2023-01-04T15:16:10.952Z,12.77
2023-01-04T15:18:38.254Z,10.55
2023-01-04T15:21:06.180Z,9.77
2023-01-04T15:23:33.392Z,10.73
2023-01-04T15:26:03.667Z,12.07
2023-01-04T15:28:30.902Z,15.52
2023-01-04T15:30:58.799Z,12.38
2023-01-04T15:33:32.135Z,12.63
2023-01-04T15:36:04.174Z,12.55
2023-01-04T15:38:31.505Z,10.75
2023-01-04T15:41:07.614Z,12.70
2023-01-04T15:43:36.613Z,11.90
2023-01-04T15:46:08.726Z,11.23
2023-01-04T15:48:36.282Z,11.88
2023-01-04T15:51:07.886Z,11.07
2023-01-04T15:53:35.739Z,10.90
2023-01-04T15:56:08.798Z,10.68
2023-01-04T15:58:36.209Z,10.50
2023-01-04T16:01:11.386Z,11.75
2023-01-04T16:03:38.867Z,9.73
2023-01-04T16:06:08.268Z,17.33
2023-01-04T16:08:35.779Z,19.40
2023-01-04T16:11:14.787Z,26.92
2023-01-04T16:13:43.031Z,33.90
2023-01-04T16:16:10.658Z,33.45
2023-01-04T16:18:38.783Z,21.25
2023-01-04T16:21:07.972Z,18.08
2023-01-04T16:23:36.572Z,27.30
2023-01-04T16:26:09.518Z,54.03
2023-01-04T16:28:37.175Z,23.23
2023-01-04T16:31:06.633Z,77.90
2023-01-04T16:33:35.748Z,53.25
2023-01-04T16:36:06.138Z,41.38
2023-01-04T16:38:37.225Z,41.60
2023-01-04T16:41:06.330Z,35.80
2023-01-04T16:43:45.912Z,39.83
2023-01-04T16:46:13.449Z,34.70
2023-01-04T16:48:51.477Z,61.65
2023-01-04T16:51:19.450Z,84.32
2023-01-04T16:53:46.974Z,105.93
2023-01-04T16:56:16.596Z,60.60
2023-01-04T16:58:45.126Z,76.10
2023-01-04T17:01:13.706Z,19.15
2023-01-04T17:03:42.237Z,26.98
2023-01-04T17:06:22.160Z,9.80
2023-01-04T17:08:51.340Z,47.42
2023-01-04T17:14:17.512Z,10.68
2023-01-04T17:16:45.188Z,10.70
2023-01-04T17:19:12.467Z,14.52
2023-01-04T17:21:39.908Z,28.30
2023-01-04T17:24:07.260Z,14.18
2023-01-04T17:26:34.688Z,11.98
2023-01-04T17:29:02.888Z,9.65
2023-01-04T17:31:36.015Z,10.85
2023-01-04T17:34:03.913Z,9.73
2023-01-04T17:36:31.504Z,9.50
2023-01-04T17:39:00.498Z,9.75
2023-01-04T17:41:29.508Z,9.75
2023-01-04T17:44:06.103Z,10.85
2023-01-04T17:46:37.002Z,13.05
2023-01-04T17:49:22.223Z,10.27
2023-01-04T17:51:52.688Z,10.68
2023-01-04T17:54:20.938Z,11.75
2023-01-04T17:56:48.447Z,10.30
2023-01-04T17:59:15.618Z,9.98
2023-01-04T18:01:44.329Z,10.55
2023-01-04T18:04:11.606Z,10.00
2023-01-04T18:06:39.586Z,9.60
2023-01-04T18:09:07.919Z,11.55
2023-01-04T18:11:36.551Z,10.98
2023-01-04T18:14:07.992Z,9.43
2023-01-04T18:16:56.437Z,10.27
2023-01-04T18:19:25.957Z,9.43
2023-01-04T18:21:53.325Z,9.60
2023-01-04T18:24:37.880Z,9.85
2023-01-04T18:27:24.880Z,10.60
2023-01-04T18:29:54.393Z,10.73
2023-01-04T18:32:23.777Z,11.38
2023-01-04T18:34:51.081Z,10.77
2023-01-04T18:37:18.937Z,9.80
2023-01-04T18:39:47.352Z,10.63
2023-01-04T18:42:14.945Z,10.07
2023-01-04T18:44:47.750Z,11.85
2023-01-04T18:47:18.125Z,10.35
2023-01-04T18:49:45.438Z,12.52
2023-01-04T18:52:13.404Z,11.40
2023-01-04T18:54:40.548Z,12.00
2023-01-04T18:57:08.040Z,12.27
2023-01-04T18:59:35.381Z,14.00
2023-01-04T19:02:03.865Z,14.07
2023-01-04T19:04:33.721Z,13.75
2023-01-04T19:07:01.692Z,14.10
2023-01-04T19:09:29.349Z,14.65
2023-01-04T19:11:56.766Z,14.07
2023-01-04T19:14:24.212Z,12.55
2023-01-04T19:16:53.197Z,13.23
2023-01-04T19:19:20.726Z,14.20
2023-01-04T19:21:48.905Z,15.63
2023-01-04T19:24:16.160Z,19.15
2023-01-04T19:26:44.118Z,20.92
2023-01-04T19:29:11.536Z,15.13
2023-01-04T19:31:39.064Z,17.95
2023-01-04T19:34:09.900Z,16.83
2023-01-04T19:36:37.659Z,21.17
2023-01-04T19:39:09.164Z,15.63
2023-01-04T19:41:38.203Z,27.10
2023-01-04T19:44:08.190Z,18.08
2023-01-04T19:46:38.364Z,16.15
2023-01-04T19:49:14.522Z,20.20
2023-01-04T19:51:47.246Z,18.10
2023-01-04T19:54:18.559Z,18.58
2023-01-04T19:56:49.131Z,18.30
2023-01-04T19:59:16.316Z,19.00
2023-01-04T20:01:43.876Z,18.02
2023-01-04T20:04:11.089Z,16.38
2023-01-04T20:06:38.910Z,15.63
2023-01-04T20:09:06.164Z,19.75
2023-01-04T20:11:33.707Z,19.85
2023-01-04T20:14:00.893Z,20.58
2023-01-04T20:16:28.430Z,21.98
2023-01-04T20:18:58.673Z,19.33
2023-01-04T20:21:26.167Z,20.35
2023-01-04T20:23:53.473Z,20.52
2023-01-04T20:26:21.010Z,19.77
2023-01-04T20:28:48.752Z,18.13
2023-01-04T20:31:18.271Z,20.55
2023-01-04T20:33:47.475Z,22.80
2023-01-04T20:36:22.990Z,20.17
2023-01-04T20:38:50.396Z,22.13
2023-01-04T20:41:20.337Z,26.15
2023-01-04T20:43:48.727Z,19.30
2023-01-04T20:46:22.193Z,21.20
2023-01-04T20:48:50.121Z,21.23
2023-01-04T20:51:23.436Z,23.52
2023-01-04T20:53:52.539Z,20.48
2023-01-04T20:56:22.573Z,23.15
2023-01-04T20:58:49.773Z,19.35
2023-01-04T21:01:19.664Z,19.27
2023-01-04T21:03:47.291Z,19.23
2023-01-04T21:06:17.259Z,19.35
2023-01-04T21:08:45.367Z,19.45
2023-01-04T21:11:13.681Z,19.50
2023-01-04T21:13:41.085Z,19.13
2023-01-04T21:16:09.127Z,21.27
2023-01-04T21:18:36.688Z,21.67
2023-01-04T21:21:08.446Z,20.30
2023-01-04T21:23:36.523Z,21.07
2023-01-04T21:26:10.937Z,19.67
2023-01-04T21:28:38.096Z,24.02
2023-01-04T21:31:15.337Z,21.05
2023-01-04T21:33:44.806Z,21.80
2023-01-04T21:36:17.861Z,22.95
2023-01-04T21:38:47.765Z,22.40
2023-01-04T21:41:15.701Z,22.58
2023-01-04T21:43:43.344Z,23.15
2023-01-04T21:46:15.243Z,29.27
2023-01-04T21:48:43.859Z,23.90
2023-01-04T21:51:12.230Z,23.20
2023-01-04T21:53:39.895Z,22.92
2023-01-04T21:56:16.018Z,22.90
2023-01-04T21:58:43.942Z,23.77
2023-01-04T22:01:30.980Z,25.13
2023-01-04T22:04:02.065Z,22.42
2023-01-04T22:06:29.761Z,27.90
2023-01-04T22:08:58.630Z,23.70
2023-01-04T22:11:26.011Z,28.08
2023-01-04T22:13:53.201Z,20.73
2023-01-04T22:16:20.745Z,20.42
2023-01-04T22:18:48.872Z,25.00
2023-01-04T22:21:21.242Z,26.17
2023-01-04T22:23:48.423Z,19.52
2023-01-04T22:26:16.086Z,18.15
2023-01-04T22:28:43.308Z,22.25
2023-01-04T22:31:13.164Z,17.30
2023-01-04T22:33:40.969Z,17.58
2023-01-04T22:36:21.321Z,33.65
2023-01-04T22:38:49.929Z,16.98
2023-01-04T22:41:19.056Z,20.23
2023-01-04T22:43:46.960Z,17.63
2023-01-04T22:46:20.061Z,16.20
2023-01-04T22:48:47.307Z,13.55
2023-01-04T22:51:16.665Z,15.23
2023-01-04T22:53:44.653Z,15.43
2023-01-04T22:56:20.734Z,12.25
2023-01-04T22:58:53.558Z,11.38
2023-01-04T23:01:23.925Z,11.45
2023-01-04T23:03:52.001Z,10.75
2023-01-04T23:06:20.023Z,10.43
2023-01-04T23:08:47.226Z,12.23
2023-01-04T23:11:17.311Z,9.63
2023-01-04T23:13:44.847Z,9.23
2023-01-04T23:16:14.713Z,11.88
2023-01-04T23:18:42.492Z,9.52
2023-01-04T23:21:10.647Z,7.10
2023-01-04T23:23:38.318Z,9.07
2023-01-04T23:26:08.389Z,7.70
2023-01-04T23:28:37.168Z,7.30
2023-01-04T23:31:07.239Z,7.22
2023-01-04T23:33:36.687Z,7.78
2023-01-04T23:36:07.233Z,10.40
2023-01-04T23:38:34.413Z,8.23
2023-01-04T23:41:01.983Z,7.30
2023-01-04T23:43:29.264Z,6.00
2023-01-04T23:45:56.833Z,5.88
2023-01-04T23:48:24.108Z,14.45
2023-01-04T23:50:57.966Z,5.35
2023-01-04T23:53:25.201Z,5.93
2023-01-04T23:56:06.045Z,6.55
2023-01-04T23:58:34.218Z,6.97
